sensor_id;sensor_type;location;lat;lon;timestamp;pressure;altitude;pressure_sealevel;temperature;humidity
35151;BME280;55720;51.972;4.624;2022-12-17T00:01:02;101724.97;;;-3.90;100.00
35151;BME280;55720;51.972;4.624;2022-12-17T00:03:46;101722.25;;;-3.83;100.00
35151;BME280;55720;51.972;4.624;2022-12-17T00:06:30;101721.16;;;-3.76;100.00
35151;BME280;55720;51.972;4.624;2022-12-17T00:09:13;101699.09;;;-3.78;100.00
35151;BME280;55720;51.972;4.624;2022-12-17T00:11:57;101699.53;;;-3.81;100.00
35151;BME280;55720;51.972;4.624;2022-12-17T00:14:41;101708.19;;;-3.79;100.00
35151;BME280;55720;51.972;4.624;2022-12-17T00:17:25;101675.16;;;-3.79;100.00
35151;BME280;55720;51.972;4.624;2022-12-17T00:20:09;101692.72;;;-3.77;100.00
35151;BME280;55720;51.972;4.624;2022-12-17T00:23:01;101685.44;;;-3.70;100.00
35151;BME280;55720;51.972;4.624;2022-12-17T00:25:55;101715.34;;;-3.66;100.00
35151;BME280;55720;51.972;4.624;2022-12-17T00:28:39;101716.16;;;-3.66;100.00
35151;BME280;55720;51.972;4.624;2022-12-17T00:31:27;101736.22;;;-3.75;100.00
35151;BME280;55720;51.972;4.624;2022-12-17T00:34:11;101739.69;;;-3.68;100.00
35151;BME280;55720;51.972;4.624;2022-12-17T00:36:56;101740.53;;;-3.67;100.00
35151;BME280;55720;51.972;4.624;2022-12-17T00:39:39;101771.91;;;-3.68;100.00
35151;BME280;55720;51.972;4.624;2022-12-17T00:42:23;101810.50;;;-3.62;100.00
35151;BME280;55720;51.972;4.624;2022-12-17T00:45:07;101829.28;;;-3.62;100.00
35151;BME280;55720;51.972;4.624;2022-12-17T00:47:52;101849.00;;;-3.50;100.00
35151;BME280;55720;51.972;4.624;2022-12-17T00:50:37;101882.25;;;-3.44;100.00
35151;BME280;55720;51.972;4.624;2022-12-17T00:53:21;101898.13;;;-3.36;100.00
35151;BME280;55720;51.972;4.624;2022-12-17T00:56:04;101899.13;;;-3.37;100.00
35151;BME280;55720;51.972;4.624;2022-12-17T00:58:48;101908.03;;;-3.37;100.00
35151;BME280;55720;51.972;4.624;2022-12-17T01:01:32;101921.84;;;-3.33;100.00
35151;BME280;55720;51.972;4.624;2022-12-17T01:04:18;101948.25;;;-3.30;100.00
35151;BME280;55720;51.972;4.624;2022-12-17T01:07:02;101941.03;;;-3.30;100.00
35151;BME280;55720;51.972;4.624;2022-12-17T01:09:45;101942.47;;;-3.27;100.00
35151;BME280;55720;51.972;4.624;2022-12-17T01:12:29;101964.41;;;-3.37;100.00
35151;BME280;55720;51.972;4.624;2022-12-17T01:15:13;101995.97;;;-3.26;100.00
35151;BME280;55720;51.972;4.624;2022-12-17T01:17:57;102016.63;;;-3.26;100.00
35151;BME280;55720;51.972;4.624;2022-12-17T01:20:41;102030.88;;;-3.32;100.00
35151;BME280;55720;51.972;4.624;2022-12-17T01:23:25;102052.78;;;-3.29;100.00
35151;BME280;55720;51.972;4.624;2022-12-17T01:26:09;102071.16;;;-3.26;100.00
35151;BME280;55720;51.972;4.624;2022-12-17T01:28:56;102107.50;;;-3.23;100.00
35151;BME280;55720;51.972;4.624;2022-12-17T01:31:39;102117.63;;;-3.25;100.00
35151;BME280;55720;51.972;4.624;2022-12-17T01:34:23;102132.91;;;-3.19;100.00
35151;BME280;55720;51.972;4.624;2022-12-17T01:37:07;102140.78;;;-3.24;100.00
35151;BME280;55720;51.972;4.624;2022-12-17T01:39:51;102127.97;;;-3.22;100.00
35151;BME280;55720;51.972;4.624;2022-12-17T01:42:41;102139.75;;;-3.23;100.00
35151;BME280;55720;51.972;4.624;2022-12-17T01:45:27;102152.75;;;-3.20;100.00
35151;BME280;55720;51.972;4.624;2022-12-17T01:48:16;102162.91;;;-3.22;100.00
35151;BME280;55720;51.972;4.624;2022-12-17T01:51:01;102182.91;;;-3.18;100.00
35151;BME280;55720;51.972;4.624;2022-12-17T01:53:51;102189.34;;;-3.26;100.00
35151;BME280;55720;51.972;4.624;2022-12-17T01:56:38;102181.47;;;-3.08;100.00
35151;BME280;55720;51.972;4.624;2022-12-17T01:59:51;102216.59;;;-3.16;100.00
35151;BME280;55720;51.972;4.624;2022-12-17T02:02:37;102232.69;;;-3.03;100.00
35151;BME280;55720;51.972;4.624;2022-12-17T02:05:29;102256.69;;;-3.01;100.00
35151;BME280;55720;51.972;4.624;2022-12-17T02:08:45;102270.09;;;-2.94;100.00
35151;BME280;55720;51.972;4.624;2022-12-17T02:11:58;102304.00;;;-3.00;100.00
35151;BME280;55720;51.972;4.624;2022-12-17T02:15:53;102296.97;;;-2.94;100.00
35151;BME280;55720;51.972;4.624;2022-12-17T02:18:38;102314.53;;;-2.99;100.00
35151;BME280;55720;51.972;4.624;2022-12-17T02:21:41;102333.34;;;-2.99;100.00
35151;BME280;55720;51.972;4.624;2022-12-17T02:24:42;102347.00;;;-2.93;100.00
35151;BME280;55720;51.972;4.624;2022-12-17T02:27:28;102377.59;;;-2.94;100.00
35151;BME280;55720;51.972;4.624;2022-12-17T02:30:13;102379.03;;;-2.92;100.00
35151;BME280;55720;51.972;4.624;2022-12-17T02:32:58;102382.97;;;-2.88;100.00
35151;BME280;55720;51.972;4.624;2022-12-17T02:35:50;102395.97;;;-2.85;100.00
35151;BME280;55720;51.972;4.624;2022-12-17T02:38:56;102388.97;;;-2.79;100.00
35151;BME280;55720;51.972;4.624;2022-12-17T02:41:43;102371.19;;;-2.74;100.00
35151;BME280;55720;51.972;4.624;2022-12-17T02:44:29;102390.63;;;-2.72;100.00
35151;BME280;55720;51.972;4.624;2022-12-17T02:47:15;102410.88;;;-2.63;100.00
35151;BME280;55720;51.972;4.624;2022-12-17T02:50:00;102428.25;;;-2.59;100.00
35151;BME280;55720;51.972;4.624;2022-12-17T02:52:46;102434.06;;;-2.62;100.00
35151;BME280;55720;51.972;4.624;2022-12-17T02:55:32;102457.22;;;-2.61;100.00
35151;BME280;55720;51.972;4.624;2022-12-17T02:58:16;102461.78;;;-2.61;100.00
35151;BME280;55720;51.972;4.624;2022-12-17T03:01:00;102450.59;;;-2.45;100.00
35151;BME280;55720;51.972;4.624;2022-12-17T03:03:44;102483.94;;;-2.39;100.00
35151;BME280;55720;51.972;4.624;2022-12-17T03:06:28;102513.09;;;-2.43;100.00
35151;BME280;55720;51.972;4.624;2022-12-17T03:09:12;102519.69;;;-2.45;100.00
35151;BME280;55720;51.972;4.624;2022-12-17T03:11:56;102519.91;;;-2.40;100.00
35151;BME280;55720;51.972;4.624;2022-12-17T03:14:40;102531.50;;;-2.46;100.00
35151;BME280;55720;51.972;4.624;2022-12-17T03:17:24;102547.66;;;-2.40;100.00
35151;BME280;55720;51.972;4.624;2022-12-17T03:20:08;102562.53;;;-2.44;100.00
35151;BME280;55720;51.972;4.624;2022-12-17T03:22:52;102565.63;;;-2.40;100.00
35151;BME280;55720;51.972;4.624;2022-12-17T03:25:43;102588.59;;;-2.31;100.00
35151;BME280;55720;51.972;4.624;2022-12-17T03:28:27;102537.50;;;-2.31;100.00
35151;BME280;55720;51.972;4.624;2022-12-17T03:31:11;102591.50;;;-2.39;100.00
35151;BME280;55720;51.972;4.624;2022-12-17T03:33:55;102604.97;;;-2.26;100.00
35151;BME280;55720;51.972;4.624;2022-12-17T03:36:38;102616.56;;;-2.32;100.00
35151;BME280;55720;51.972;4.624;2022-12-17T03:39:22;102611.19;;;-2.19;100.00
35151;BME280;55720;51.972;4.624;2022-12-17T03:42:06;102606.03;;;-2.21;100.00
35151;BME280;55720;51.972;4.624;2022-12-17T03:44:50;102586.78;;;-2.24;100.00
35151;BME280;55720;51.972;4.624;2022-12-17T03:47:34;102595.66;;;-2.30;100.00
35151;BME280;55720;51.972;4.624;2022-12-17T03:50:18;102600.19;;;-2.31;100.00
35151;BME280;55720;51.972;4.624;2022-12-17T03:53:03;102594.03;;;-2.25;100.00
35151;BME280;55720;51.972;4.624;2022-12-17T03:55:47;102600.66;;;-2.21;100.00
35151;BME280;55720;51.972;4.624;2022-12-17T03:58:31;102602.09;;;-2.18;100.00
35151;BME280;55720;51.972;4.624;2022-12-17T04:01:15;102561.50;;;-2.23;100.00
35151;BME280;55720;51.972;4.624;2022-12-17T04:03:59;102584.47;;;-2.27;100.00
35151;BME280;55720;51.972;4.624;2022-12-17T04:06:46;102577.66;;;-2.23;100.00
35151;BME280;55720;51.972;4.624;2022-12-17T04:09:29;102568.16;;;-2.19;100.00
35151;BME280;55720;51.972;4.624;2022-12-17T04:12:13;102571.47;;;-2.17;100.00
35151;BME280;55720;51.972;4.624;2022-12-17T04:14:57;102574.38;;;-2.25;100.00
35151;BME280;55720;51.972;4.624;2022-12-17T04:17:41;102578.31;;;-2.21;100.00
35151;BME280;55720;51.972;4.624;2022-12-17T04:20:25;102571.03;;;-2.27;100.00
35151;BME280;55720;51.972;4.624;2022-12-17T04:23:09;102570.19;;;-2.34;100.00
35151;BME280;55720;51.972;4.624;2022-12-17T04:25:53;102555.13;;;-2.22;100.00
35151;BME280;55720;51.972;4.624;2022-12-17T04:28:37;102556.56;;;-2.26;100.00
35151;BME280;55720;51.972;4.624;2022-12-17T04:31:21;102573.31;;;-2.31;100.00
35151;BME280;55720;51.972;4.624;2022-12-17T04:34:05;102568.75;;;-2.30;100.00
35151;BME280;55720;51.972;4.624;2022-12-17T04:36:49;102559.88;;;-2.24;100.00
35151;BME280;55720;51.972;4.624;2022-12-17T04:39:33;102572.91;;;-2.21;100.00
35151;BME280;55720;51.972;4.624;2022-12-17T04:42:17;102568.34;;;-2.27;100.00
35151;BME280;55720;51.972;4.624;2022-12-17T04:45:01;102561.31;;;-2.22;100.00
35151;BME280;55720;51.972;4.624;2022-12-17T04:47:45;102554.69;;;-2.19;100.00
35151;BME280;55720;51.972;4.624;2022-12-17T04:50:29;102555.94;;;-2.22;100.00
35151;BME280;55720;51.972;4.624;2022-12-17T04:53:13;102550.75;;;-2.23;100.00
35151;BME280;55720;51.972;4.624;2022-12-17T04:55:57;102552.00;;;-2.19;100.00
35151;BME280;55720;51.972;4.624;2022-12-17T04:58:41;102550.56;;;-2.28;100.00
35151;BME280;55720;51.972;4.624;2022-12-17T05:01:25;102549.91;;;-2.30;100.00
35151;BME280;55720;51.972;4.624;2022-12-17T05:04:09;102546.22;;;-2.42;100.00
35151;BME280;55720;51.972;4.624;2022-12-17T05:06:53;102536.47;;;-2.30;100.00
35151;BME280;55720;51.972;4.624;2022-12-17T05:09:37;102527.56;;;-2.37;100.00
35151;BME280;55720;51.972;4.624;2022-12-17T05:12:21;102550.53;;;-2.35;100.00
35151;BME280;55720;51.972;4.624;2022-12-17T05:15:05;102558.81;;;-2.36;100.00
35151;BME280;55720;51.972;4.624;2022-12-17T05:17:49;102540.59;;;-2.34;100.00
35151;BME280;55720;51.972;4.624;2022-12-17T05:20:33;102539.78;;;-2.35;100.00
35151;BME280;55720;51.972;4.624;2022-12-17T05:23:17;102527.16;;;-2.28;100.00
35151;BME280;55720;51.972;4.624;2022-12-17T05:26:14;102525.09;;;-2.26;100.00
35151;BME280;55720;51.972;4.624;2022-12-17T05:29:00;102535.22;;;-2.34;100.00
35151;BME280;55720;51.972;4.624;2022-12-17T05:31:44;102529.22;;;-2.30;100.00
35151;BME280;55720;51.972;4.624;2022-12-17T05:34:28;102507.72;;;-2.30;100.00
35151;BME280;55720;51.972;4.624;2022-12-17T05:37:12;102515.38;;;-2.27;100.00
35151;BME280;55720;51.972;4.624;2022-12-17T05:39:56;102509.16;;;-2.27;100.00
35151;BME280;55720;51.972;4.624;2022-12-17T05:42:40;102507.53;;;-2.28;100.00
35151;BME280;55720;51.972;4.624;2022-12-17T05:45:24;102510.00;;;-2.33;100.00
35151;BME280;55720;51.972;4.624;2022-12-17T05:48:08;102517.63;;;-2.30;100.00
35151;BME280;55720;51.972;4.624;2022-12-17T05:50:52;102520.56;;;-2.32;100.00
35151;BME280;55720;51.972;4.624;2022-12-17T05:53:36;102511.44;;;-2.18;100.00
35151;BME280;55720;51.972;4.624;2022-12-17T05:56:20;102516.41;;;-2.21;100.00
35151;BME280;55720;51.972;4.624;2022-12-17T05:59:04;102522.00;;;-2.29;100.00
35151;BME280;55720;51.972;4.624;2022-12-17T06:01:48;102524.28;;;-2.33;100.00
35151;BME280;55720;51.972;4.624;2022-12-17T06:04:32;102526.34;;;-2.28;100.00
35151;BME280;55720;51.972;4.624;2022-12-17T06:07:16;102508.13;;;-2.20;100.00
35151;BME280;55720;51.972;4.624;2022-12-17T06:10:00;102522.22;;;-2.24;100.00
35151;BME280;55720;51.972;4.624;2022-12-17T06:12:54;102532.75;;;-2.16;100.00
35151;BME280;55720;51.972;4.624;2022-12-17T06:15:37;102540.03;;;-2.10;100.00
35151;BME280;55720;51.972;4.624;2022-12-17T06:18:22;102524.47;;;-2.08;100.00
35151;BME280;55720;51.972;4.624;2022-12-17T06:21:06;102511.22;;;-2.10;100.00
35151;BME280;55720;51.972;4.624;2022-12-17T06:23:49;102519.72;;;-2.13;100.00
35151;BME280;55720;51.972;4.624;2022-12-17T06:26:33;102483.69;;;-2.05;100.00
35151;BME280;55720;51.972;4.624;2022-12-17T06:29:17;102504.63;;;-2.07;100.00
35151;BME280;55720;51.972;4.624;2022-12-17T06:32:01;102519.31;;;-2.03;100.00
35151;BME280;55720;51.972;4.624;2022-12-17T06:34:45;102519.72;;;-2.00;100.00
35151;BME280;55720;51.972;4.624;2022-12-17T06:37:29;102537.91;;;-1.95;100.00
35151;BME280;55720;51.972;4.624;2022-12-17T06:40:13;102527.16;;;-1.88;100.00
35151;BME280;55720;51.972;4.624;2022-12-17T06:42:57;102522.81;;;-1.89;100.00
35151;BME280;55720;51.972;4.624;2022-12-17T06:45:41;102540.41;;;-1.93;100.00
35151;BME280;55720;51.972;4.624;2022-12-17T06:48:27;102548.06;;;-1.97;100.00
35151;BME280;55720;51.972;4.624;2022-12-17T06:51:10;102546.63;;;-2.00;100.00
35151;BME280;55720;51.972;4.624;2022-12-17T06:53:54;102559.03;;;-2.05;100.00
35151;BME280;55720;51.972;4.624;2022-12-17T06:56:39;102560.28;;;-2.14;100.00
35151;BME280;55720;51.972;4.624;2022-12-17T06:59:22;102574.34;;;-2.06;100.00
35151;BME280;55720;51.972;4.624;2022-12-17T07:02:09;102578.28;;;-2.02;100.00
35151;BME280;55720;51.972;4.624;2022-12-17T07:04:53;102578.09;;;-2.00;100.00
35151;BME280;55720;51.972;4.624;2022-12-17T07:07:37;102582.66;;;-2.01;100.00
35151;BME280;55720;51.972;4.624;2022-12-17T07:10:21;102597.97;;;-2.01;100.00
35151;BME280;55720;51.972;4.624;2022-12-17T07:13:06;102600.84;;;-2.03;100.00
35151;BME280;55720;51.972;4.624;2022-12-17T07:15:51;102602.75;;;-2.03;100.00
35151;BME280;55720;51.972;4.624;2022-12-17T07:18:35;102618.25;;;-2.05;100.00
35151;BME280;55720;51.972;4.624;2022-12-17T07:21:19;102604.38;;;-2.02;100.00
35151;BME280;55720;51.972;4.624;2022-12-17T07:24:06;102621.59;;;-1.90;100.00
35151;BME280;55720;51.972;4.624;2022-12-17T07:26:50;102626.13;;;-1.97;100.00
35151;BME280;55720;51.972;4.624;2022-12-17T07:29:34;102642.28;;;-2.04;100.00
35151;BME280;55720;51.972;4.624;2022-12-17T07:32:18;102642.88;;;-2.08;100.00
35151;BME280;55720;51.972;4.624;2022-12-17T07:35:02;102655.72;;;-2.10;100.00
35151;BME280;55720;51.972;4.624;2022-12-17T07:37:46;102679.91;;;-2.23;100.00
35151;BME280;55720;51.972;4.624;2022-12-17T07:40:30;102681.97;;;-2.32;100.00
35151;BME280;55720;51.972;4.624;2022-12-17T07:43:14;102694.94;;;-2.42;100.00
35151;BME280;55720;51.972;4.624;2022-12-17T07:45:58;102703.22;;;-2.43;100.00
35151;BME280;55720;51.972;4.624;2022-12-17T07:48:42;102704.06;;;-2.43;100.00
35151;BME280;55720;51.972;4.624;2022-12-17T07:51:26;102713.97;;;-2.50;100.00
35151;BME280;55720;51.972;4.624;2022-12-17T07:54:10;102711.22;;;-2.57;100.00
35151;BME280;55720;51.972;4.624;2022-12-17T07:56:54;102725.03;;;-2.66;100.00
35151;BME280;55720;51.972;4.624;2022-12-17T07:59:38;102733.69;;;-2.71;100.00
35151;BME280;55720;51.972;4.624;2022-12-17T08:02:22;102746.66;;;-2.81;100.00
35151;BME280;55720;51.972;4.624;2022-12-17T08:05:06;102743.81;;;-2.79;100.00
35151;BME280;55720;51.972;4.624;2022-12-17T08:07:49;102761.53;;;-2.85;100.00
35151;BME280;55720;51.972;4.624;2022-12-17T08:10:34;102767.44;;;-2.96;100.00
35151;BME280;55720;51.972;4.624;2022-12-17T08:13:18;102757.34;;;-2.94;100.00
35151;BME280;55720;51.972;4.624;2022-12-17T08:16:01;102771.00;;;-2.89;100.00
35151;BME280;55720;51.972;4.624;2022-12-17T08:18:45;102775.81;;;-2.84;100.00
35151;BME280;55720;51.972;4.624;2022-12-17T08:21:29;102790.91;;;-2.83;100.00
35151;BME280;55720;51.972;4.624;2022-12-17T08:24:13;102793.03;;;-2.79;100.00
35151;BME280;55720;51.972;4.624;2022-12-17T08:26:57;102798.41;;;-2.79;100.00
35151;BME280;55720;51.972;4.624;2022-12-17T08:29:41;102809.06;;;-2.85;100.00
35151;BME280;55720;51.972;4.624;2022-12-17T08:32:25;102801.22;;;-2.87;100.00
35151;BME280;55720;51.972;4.624;2022-12-17T08:35:09;102806.59;;;-2.87;100.00
35151;BME280;55720;51.972;4.624;2022-12-17T08:38:02;102811.13;;;-2.87;100.00
35151;BME280;55720;51.972;4.624;2022-12-17T08:40:47;102811.72;;;-2.92;100.00
35151;BME280;55720;51.972;4.624;2022-12-17T08:43:31;102812.75;;;-2.93;100.00
35151;BME280;55720;51.972;4.624;2022-12-17T08:46:15;102822.28;;;-2.90;100.00
35151;BME280;55720;51.972;4.624;2022-12-17T08:48:58;102836.13;;;-2.93;100.00
35151;BME280;55720;51.972;4.624;2022-12-17T08:51:42;102843.91;;;-2.99;100.00
35151;BME280;55720;51.972;4.624;2022-12-17T08:54:27;102834.41;;;-3.01;100.00
35151;BME280;55720;51.972;4.624;2022-12-17T08:57:10;102843.47;;;-3.02;100.00
35151;BME280;55720;51.972;4.624;2022-12-17T08:59:54;102845.91;;;-3.07;100.00
35151;BME280;55720;51.972;4.624;2022-12-17T09:02:38;102849.03;;;-3.04;100.00
35151;BME280;55720;51.972;4.624;2022-12-17T09:05:23;102849.88;;;-3.03;100.00
35151;BME280;55720;51.972;4.624;2022-12-17T09:08:06;102854.22;;;-3.02;100.00
35151;BME280;55720;51.972;4.624;2022-12-17T09:10:51;102859.09;;;-2.91;100.00
35151;BME280;55720;51.972;4.624;2022-12-17T09:13:35;102860.94;;;-2.91;100.00
35151;BME280;55720;51.972;4.624;2022-12-17T09:16:20;102865.47;;;-2.92;100.00
35151;BME280;55720;51.972;4.624;2022-12-17T09:19:04;102869.69;;;-2.83;100.00
35151;BME280;55720;51.972;4.624;2022-12-17T09:22:08;102871.72;;;-2.85;100.00
35151;BME280;55720;51.972;4.624;2022-12-17T09:24:51;102869.88;;;-2.84;100.00
35151;BME280;55720;51.972;4.624;2022-12-17T09:27:35;102880.84;;;-2.86;100.00
35151;BME280;55720;51.972;4.624;2022-12-17T09:30:19;102893.09;;;-2.77;100.00
35151;BME280;55720;51.972;4.624;2022-12-17T09:33:03;102888.22;;;-2.67;100.00
35151;BME280;55720;51.972;4.624;2022-12-17T09:35:47;102889.50;;;-2.63;100.00
35151;BME280;55720;51.972;4.624;2022-12-17T09:38:31;102904.84;;;-2.57;100.00
35151;BME280;55720;51.972;4.624;2022-12-17T09:41:27;102908.88;;;-2.46;100.00
35151;BME280;55720;51.972;4.624;2022-12-17T09:50:19;102906.75;;;-2.23;100.00
35151;BME280;55720;51.972;4.624;2022-12-17T09:53:13;102906.00;;;-2.10;100.00
35151;BME280;55720;51.972;4.624;2022-12-17T09:56:00;102905.63;;;-2.07;100.00
35151;BME280;55720;51.972;4.624;2022-12-17T09:58:44;102913.72;;;-2.01;100.00
35151;BME280;55720;51.972;4.624;2022-12-17T10:01:33;102914.41;;;-1.92;100.00
35151;BME280;55720;51.972;4.624;2022-12-17T10:04:41;102898.25;;;-1.92;100.00
35151;BME280;55720;51.972;4.624;2022-12-17T10:07:35;102887.50;;;-1.85;100.00
35151;BME280;55720;51.972;4.624;2022-12-17T10:10:23;102898.28;;;-1.85;100.00
35151;BME280;55720;51.972;4.624;2022-12-17T10:13:14;102890.47;;;-1.67;100.00
35151;BME280;55720;51.972;4.624;2022-12-17T10:15:58;102899.03;;;-1.51;100.00
35151;BME280;55720;51.972;4.624;2022-12-17T10:18:43;102885.59;;;-1.37;100.00
35151;BME280;55720;51.972;4.624;2022-12-17T10:21:28;102884.81;;;-1.25;100.00
35151;BME280;55720;51.972;4.624;2022-12-17T10:24:11;102877.38;;;-1.16;100.00
35151;BME280;55720;51.972;4.624;2022-12-17T10:26:55;102874.47;;;-0.95;100.00
35151;BME280;55720;51.972;4.624;2022-12-17T10:29:41;102863.88;;;-0.90;100.00
35151;BME280;55720;51.972;4.624;2022-12-17T10:32:26;102850.44;;;-0.83;100.00
35151;BME280;55720;51.972;4.624;2022-12-17T10:35:18;102846.69;;;-0.69;100.00
35151;BME280;55720;51.972;4.624;2022-12-17T10:38:29;102838.34;;;-0.61;100.00
35151;BME280;55720;51.972;4.624;2022-12-17T10:41:38;102811.78;;;-0.58;100.00
35151;BME280;55720;51.972;4.624;2022-12-17T10:44:36;102805.75;;;-0.40;100.00
35151;BME280;55720;51.972;4.624;2022-12-17T10:47:23;102794.69;;;-0.25;100.00
35151;BME280;55720;51.972;4.624;2022-12-17T10:52:56;102785.88;;;-0.01;100.00
35151;BME280;55720;51.972;4.624;2022-12-17T10:56:00;102791.31;;;-0.08;100.00
35151;BME280;55720;51.972;4.624;2022-12-17T10:58:48;102771.94;;;0.02;100.00
35151;BME280;55720;51.972;4.624;2022-12-17T11:01:33;102769.94;;;0.22;100.00
35151;BME280;55720;51.972;4.624;2022-12-17T11:04:36;102752.91;;;0.22;100.00
35151;BME280;55720;51.972;4.624;2022-12-17T11:10:18;102726.66;;;0.35;100.00
35151;BME280;55720;51.972;4.624;2022-12-17T11:13:33;102688.06;;;0.53;100.00
35151;BME280;55720;51.972;4.624;2022-12-17T11:16:39;102672.22;;;0.57;100.00
35151;BME280;55720;51.972;4.624;2022-12-17T11:22:30;102625.53;;;0.49;100.00
35151;BME280;55720;51.972;4.624;2022-12-17T11:28:26;102571.25;;;0.69;100.00
35151;BME280;55720;51.972;4.624;2022-12-17T11:40:21;102472.31;;;0.68;100.00
35151;BME280;55720;51.972;4.624;2022-12-17T11:49:45;102370.00;;;0.95;100.00
35151;BME280;55720;51.972;4.624;2022-12-17T11:58:39;102314.63;;;1.09;100.00
35151;BME280;55720;51.972;4.624;2022-12-17T12:05:00;102260.91;;;1.13;100.00
35151;BME280;55720;51.972;4.624;2022-12-17T12:07:43;102215.25;;;1.28;100.00
35151;BME280;55720;51.972;4.624;2022-12-17T12:10:41;102174.47;;;1.18;100.00
35151;BME280;55720;51.972;4.624;2022-12-17T12:13:35;102135.00;;;1.73;100.00
35151;BME280;55720;51.972;4.624;2022-12-17T12:16:27;102090.13;;;1.49;100.00
35151;BME280;55720;51.972;4.624;2022-12-17T12:19:25;101922.66;;;1.36;100.00
35151;BME280;55720;51.972;4.624;2022-12-17T12:22:40;101999.41;;;1.30;100.00
35151;BME280;55720;51.972;4.624;2022-12-17T12:25:52;102063.91;;;1.49;100.00
35151;BME280;55720;51.972;4.624;2022-12-17T12:28:52;102122.03;;;1.47;100.00
35151;BME280;55720;51.972;4.624;2022-12-17T12:34:45;102201.38;;;1.36;100.00
35151;BME280;55720;51.972;4.624;2022-12-17T12:37:30;102204.72;;;1.66;100.00
35151;BME280;55720;51.972;4.624;2022-12-17T12:40:28;102231.28;;;1.81;100.00
35151;BME280;55720;51.972;4.624;2022-12-17T12:43:25;102257.84;;;1.44;100.00
35151;BME280;55720;51.972;4.624;2022-12-17T12:46:21;102279.50;;;1.44;100.00
35151;BME280;55720;51.972;4.624;2022-12-17T12:49:15;102272.34;;;1.26;100.00
35151;BME280;55720;51.972;4.624;2022-12-17T12:52:01;102252.78;;;1.47;100.00
35151;BME280;55720;51.972;4.624;2022-12-17T12:57:56;102270.47;;;1.90;100.00
35151;BME280;55720;51.972;4.624;2022-12-17T13:03:32;102317.19;;;1.97;100.00
35151;BME280;55720;51.972;4.624;2022-12-17T13:06:38;102349.28;;;1.77;100.00
35151;BME280;55720;51.972;4.624;2022-12-17T13:14:49;102397.41;;;1.63;100.00
35151;BME280;55720;51.972;4.624;2022-12-17T13:19:45;102418.38;;;1.79;100.00
35151;BME280;55720;51.972;4.624;2022-12-17T13:24:44;102441.78;;;1.74;100.00
35151;BME280;55720;51.972;4.624;2022-12-17T13:29:54;102460.81;;;1.56;100.00
35151;BME280;55720;51.972;4.624;2022-12-17T13:32:27;102476.72;;;1.40;100.00
35151;BME280;55720;51.972;4.624;2022-12-17T13:40:45;102492.91;;;0.99;100.00
35151;BME280;55720;51.972;4.624;2022-12-17T13:43:20;102499.63;;;0.42;100.00
35151;BME280;55720;51.972;4.624;2022-12-17T13:45:49;102494.38;;;0.29;100.00
35151;BME280;55720;51.972;4.624;2022-12-17T13:48:21;102492.53;;;0.05;100.00
35151;BME280;55720;51.972;4.624;2022-12-17T13:50:54;102495.94;;;-0.07;100.00
35151;BME280;55720;51.972;4.624;2022-12-17T13:53:19;102499.09;;;-0.34;100.00
35151;BME280;55720;51.972;4.624;2022-12-17T13:55:50;102486.03;;;-0.37;100.00
35151;BME280;55720;51.972;4.624;2022-12-17T13:58:25;102485.72;;;-0.47;100.00
35151;BME280;55720;51.972;4.624;2022-12-17T14:01:08;102481.28;;;-0.67;100.00
35151;BME280;55720;51.972;4.624;2022-12-17T14:03:36;102476.31;;;-0.70;100.00
35151;BME280;55720;51.972;4.624;2022-12-17T14:06:03;102475.09;;;-0.74;100.00
35151;BME280;55720;51.972;4.624;2022-12-17T14:08:32;102460.84;;;-0.81;100.00
35151;BME280;55720;51.972;4.624;2022-12-17T14:10:57;102447.59;;;-0.89;100.00
35151;BME280;55720;51.972;4.624;2022-12-17T14:13:44;102438.03;;;-0.85;100.00
35151;BME280;55720;51.972;4.624;2022-12-17T14:16:15;102438.31;;;-0.93;100.00
35151;BME280;55720;51.972;4.624;2022-12-17T14:18:45;102434.22;;;-1.02;100.00
35151;BME280;55720;51.972;4.624;2022-12-17T14:21:11;102426.97;;;-1.08;100.00
35151;BME280;55720;51.972;4.624;2022-12-17T14:23:38;102428.25;;;-1.11;100.00
35151;BME280;55720;51.972;4.624;2022-12-17T14:26:04;102420.41;;;-1.19;100.00
35151;BME280;55720;51.972;4.624;2022-12-17T14:33:41;102414.72;;;-1.35;100.00
35151;BME280;55720;51.972;4.624;2022-12-17T14:36:20;102402.50;;;-1.44;100.00
35151;BME280;55720;51.972;4.624;2022-12-17T14:38:56;102395.25;;;-1.44;100.00
35151;BME280;55720;51.972;4.624;2022-12-17T14:41:24;102390.94;;;-1.52;100.00
35151;BME280;55720;51.972;4.624;2022-12-17T14:44:23;102380.00;;;-1.57;100.00
35151;BME280;55720;51.972;4.624;2022-12-17T14:46:51;102371.56;;;-1.67;100.00
35151;BME280;55720;51.972;4.624;2022-12-17T14:49:19;102370.53;;;-1.72;100.00
35151;BME280;55720;51.972;4.624;2022-12-17T14:51:47;102370.56;;;-1.79;100.00
35151;BME280;55720;51.972;4.624;2022-12-17T14:56:41;102342.47;;;-1.89;100.00
35151;BME280;55720;51.972;4.624;2022-12-17T15:01:56;102315.56;;;-2.03;100.00
35151;BME280;55720;51.972;4.624;2022-12-17T15:04:23;102316.88;;;-2.12;100.00
35151;BME280;55720;51.972;4.624;2022-12-17T15:06:52;102309.22;;;-2.15;100.00
35151;BME280;55720;51.972;4.624;2022-12-17T15:09:18;102294.53;;;-2.19;100.00
35151;BME280;55720;51.972;4.624;2022-12-17T15:11:44;102285.88;;;-2.21;100.00
35151;BME280;55720;51.972;4.624;2022-12-17T15:14:09;102278.44;;;-2.25;100.00
35151;BME280;55720;51.972;4.624;2022-12-17T15:16:34;102267.47;;;-2.30;100.00
35151;BME280;55720;51.972;4.624;2022-12-17T15:19:00;102251.16;;;-2.35;100.00
35151;BME280;55720;51.972;4.624;2022-12-17T15:21:25;102237.31;;;-2.39;100.00
35151;BME280;55720;51.972;4.624;2022-12-17T15:23:51;102221.81;;;-2.43;100.00
35151;BME280;55720;51.972;4.624;2022-12-17T15:26:17;102202.34;;;-2.45;100.00
35151;BME280;55720;51.972;4.624;2022-12-17T15:28:44;102190.16;;;-2.48;100.00
35151;BME280;55720;51.972;4.624;2022-12-17T15:31:10;102171.53;;;-2.50;100.00